Time,TemperatureF,DewpointF,PressureIn,WindDirection,WindDirectionDegrees,WindSpeedMPH,WindSpeedGustMPH,Humidity,HourlyPrecipIn,Conditions,Clouds,dailyrainin,SoftwareType,DateUTC
2013-05-26 00:00:00,44.0,40.4,29.80,WNW,292,17.0,28.0,87,0.00,,,0.00,WeatherCatV1.01B143,2013-05-26 04:00:00,
2013-05-26 00:05:00,44.0,40.4,29.80,WNW,292,17.0,28.0,87,0.00,,,0.00,WeatherCatV1.01B143,2013-05-26 04:05:00,
2013-05-26 00:10:00,44.0,40.4,29.80,NW,315,16.0,28.0,87,0.00,,,0.00,WeatherCatV1.01B143,2013-05-26 04:10:00,
2013-05-26 00:15:00,44.0,40.4,29.80,NW,315,16.0,28.0,87,0.00,,,0.00,WeatherCatV1.01B143,2013-05-26 04:15:00,
2013-05-26 00:20:00,44.0,40.4,29.80,NW,315,16.0,28.0,87,0.00,,,0.00,WeatherCatV1.01B143,2013-05-26 04:20:00,
2013-05-26 00:25:00,44.0,40.4,29.80,NW,315,16.0,28.0,87,0.00,,,0.00,WeatherCatV1.01B143,2013-05-26 04:25:00,
2013-05-26 00:30:00,44.1,40.2,29.80,WNW,292,15.0,26.0,86,0.00,,,0.00,WeatherCatV1.01B143,2013-05-26 04:30:00,
2013-05-26 00:35:00,44.1,40.2,29.80,WNW,292,15.0,26.0,86,0.00,,,0.00,WeatherCatV1.01B143,2013-05-26 04:35:00,
2013-05-26 00:40:00,44.1,40.2,29.80,WNW,292,15.0,26.0,86,0.00,,,0.00,WeatherCatV1.01B143,2013-05-26 04:40:00,
2013-05-26 00:45:00,44.1,40.2,29.80,WNW,292,15.0,26.0,86,0.00,,,0.00,WeatherCatV1.01B143,2013-05-26 04:45:00,
2013-05-26 00:50:00,44.1,40.2,29.80,WNW,292,15.0,26.0,86,0.00,,,0.00,WeatherCatV1.01B143,2013-05-26 04:50:00,
2013-05-26 00:55:00,44.1,40.2,29.80,WNW,292,15.0,26.0,86,0.00,,,0.00,WeatherCatV1.01B143,2013-05-26 04:55:00,
2013-05-26 01:00:00,44.1,40.2,29.80,WNW,292,14.0,23.0,86,0.00,,,0.00,WeatherCatV1.01B143,2013-05-26 05:00:00,
2013-05-26 01:05:00,44.1,40.2,29.80,WNW,292,14.0,23.0,86,0.00,,,0.00,WeatherCatV1.01B143,2013-05-26 05:05:00,
2013-05-26 01:10:00,44.1,40.2,29.80,WNW,292,14.0,23.0,86,0.00,,,0.00,WeatherCatV1.01B143,2013-05-26 05:10:00,
2013-05-26 01:15:00,44.1,40.2,29.80,WNW,292,14.0,23.0,86,0.00,,,0.00,WeatherCatV1.01B143,2013-05-26 05:15:00,
2013-05-26 01:20:00,44.1,40.2,29.80,WNW,292,14.0,23.0,86,0.00,,,0.00,WeatherCatV1.01B143,2013-05-26 05:20:00,
2013-05-26 01:25:00,44.1,40.2,29.80,WNW,292,14.0,23.0,86,0.00,,,0.00,WeatherCatV1.01B143,2013-05-26 05:25:00,
2013-05-26 01:30:00,44.5,40.9,29.80,WNW,292,13.0,23.0,87,0.00,,,0.00,WeatherCatV1.01B143,2013-05-26 05:30:00,
2013-05-26 01:35:00,44.5,40.9,29.80,WNW,292,13.0,23.0,87,0.00,,,0.00,WeatherCatV1.01B143,2013-05-26 05:35:00,
2013-05-26 01:40:00,44.5,40.9,29.80,WNW,292,13.0,23.0,87,0.00,,,0.00,WeatherCatV1.01B143,2013-05-26 05:40:00,
2013-05-26 01:45:00,44.5,40.9,29.80,WNW,292,13.0,23.0,87,0.00,,,0.00,WeatherCatV1.01B143,2013-05-26 05:45:00,
2013-05-26 01:50:00,44.5,40.9,29.80,WNW,292,13.0,23.0,87,0.00,,,0.00,WeatherCatV1.01B143,2013-05-26 05:50:00,
2013-05-26 01:55:00,44.5,40.9,29.80,WNW,292,13.0,23.0,87,0.00,,,0.00,WeatherCatV1.01B143,2013-05-26 05:55:00,
2013-05-26 02:00:00,44.5,40.9,29.80,WNW,292,13.0,23.0,87,0.00,,,0.00,WeatherCatV1.01B143,2013-05-26 06:00:00,
2013-05-26 02:05:00,44.7,40.8,29.80,WNW,292,15.0,24.0,86,0.00,,,0.00,WeatherCatV1.01B143,2013-05-26 06:05:00,
2013-05-26 02:10:00,44.7,40.8,29.80,WNW,292,15.0,24.0,86,0.00,,,0.00,WeatherCatV1.01B143,2013-05-26 06:10:00,
2013-05-26 02:15:00,44.7,40.8,29.80,WNW,292,15.0,24.0,86,0.00,,,0.00,WeatherCatV1.01B143,2013-05-26 06:15:00,
2013-05-26 02:20:00,44.7,40.8,29.80,WNW,292,15.0,24.0,86,0.00,,,0.00,WeatherCatV1.01B143,2013-05-26 06:20:00,
2013-05-26 02:25:00,44.7,40.8,29.80,WNW,292,15.0,24.0,86,0.00,,,0.00,WeatherCatV1.01B143,2013-05-26 06:25:00,
2013-05-26 02:30:00,44.7,40.8,29.80,WNW,292,15.0,24.0,86,0.00,,,0.00,WeatherCatV1.01B143,2013-05-26 06:30:00,
2013-05-26 02:35:00,44.8,41.2,29.80,WNW,292,14.0,24.0,87,0.00,,,0.00,WeatherCatV1.01B143,2013-05-26 06:35:00,
2013-05-26 02:40:00,44.8,41.2,29.80,WNW,292,14.0,24.0,87,0.00,,,0.00,WeatherCatV1.01B143,2013-05-26 06:40:00,
2013-05-26 02:45:00,44.8,41.2,29.80,WNW,292,14.0,24.0,87,0.00,,,0.00,WeatherCatV1.01B143,2013-05-26 06:45:00,
2013-05-26 02:50:00,44.8,41.2,29.80,WNW,292,14.0,24.0,87,0.00,,,0.00,WeatherCatV1.01B143,2013-05-26 06:50:00,
2013-05-26 02:55:00,44.8,41.2,29.80,WNW,292,14.0,24.0,87,0.00,,,0.00,WeatherCatV1.01B143,2013-05-26 06:55:00,
2013-05-26 03:00:00,44.8,41.2,29.80,WNW,292,14.0,24.0,87,0.00,,,0.00,WeatherCatV1.01B143,2013-05-26 07:00:00,
2013-05-26 03:05:00,44.6,41.3,29.80,WNW,292,15.0,26.0,88,0.00,,,0.00,WeatherCatV1.01B143,2013-05-26 07:05:00,
2013-05-26 03:10:00,44.6,41.3,29.80,WNW,292,15.0,26.0,88,0.00,,,0.00,WeatherCatV1.01B143,2013-05-26 07:10:00,
2013-05-26 03:15:00,44.6,41.3,29.80,WNW,292,15.0,26.0,88,0.00,,,0.00,WeatherCatV1.01B143,2013-05-26 07:15:00,
2013-05-26 03:20:00,44.6,41.3,29.80,WNW,292,15.0,26.0,88,0.00,,,0.00,WeatherCatV1.01B143,2013-05-26 07:20:00,
2013-05-26 03:25:00,44.6,41.3,29.80,WNW,292,15.0,26.0,88,0.00,,,0.00,WeatherCatV1.01B143,2013-05-26 07:25:00,
2013-05-26 03:30:00,44.6,41.3,29.80,WNW,292,15.0,26.0,88,0.00,,,0.00,WeatherCatV1.01B143,2013-05-26 07:30:00,
2013-05-26 03:35:00,45.0,41.1,29.80,WNW,292,13.0,22.0,86,0.00,,,0.00,WeatherCatV1.01B143,2013-05-26 07:35:00,
2013-05-26 03:40:00,45.0,41.1,29.80,WNW,292,13.0,22.0,86,0.00,,,0.00,WeatherCatV1.01B143,2013-05-26 07:40:00,
2013-05-26 03:45:00,45.0,41.1,29.80,WNW,292,13.0,22.0,86,0.00,,,0.00,WeatherCatV1.01B143,2013-05-26 07:45:00,
2013-05-26 03:50:00,45.0,41.1,29.80,WNW,292,13.0,22.0,86,0.00,,,0.00,WeatherCatV1.01B143,2013-05-26 07:50:00,
2013-05-26 03:55:00,45.0,41.1,29.80,WNW,292,13.0,22.0,86,0.00,,,0.00,WeatherCatV1.01B143,2013-05-26 07:55:00,
2013-05-26 04:00:00,45.0,41.1,29.80,WNW,292,13.0,22.0,86,0.00,,,0.00,WeatherCatV1.01B143,2013-05-26 08:00:00,
2013-05-26 04:05:00,44.9,40.7,29.80,WNW,292,16.0,27.0,85,0.00,,,0.00,WeatherCatV1.01B143,2013-05-26 08:05:00,
2013-05-26 04:10:00,44.9,40.7,29.80,WNW,292,16.0,27.0,85,0.00,,,0.00,WeatherCatV1.01B143,2013-05-26 08:10:00,
2013-05-26 04:15:00,44.9,40.7,29.80,WNW,292,16.0,27.0,85,0.00,,,0.00,WeatherCatV1.01B143,2013-05-26 08:15:00,
2013-05-26 04:20:00,44.9,40.7,29.80,WNW,292,16.0,27.0,85,0.00,,,0.00,WeatherCatV1.01B143,2013-05-26 08:20:00,
2013-05-26 04:25:00,44.9,40.7,29.80,WNW,292,16.0,27.0,85,0.00,,,0.00,WeatherCatV1.01B143,2013-05-26 08:25:00,
2013-05-26 04:30:00,44.9,40.7,29.80,WNW,292,16.0,27.0,85,0.00,,,0.00,WeatherCatV1.01B143,2013-05-26 08:30:00,
2013-05-26 04:35:00,44.8,41.2,29.80,WNW,292,13.0,22.0,87,0.00,,,0.00,WeatherCatV1.01B143,2013-05-26 08:35:00,
2013-05-26 04:40:00,44.8,41.2,29.80,WNW,292,13.0,22.0,87,0.00,,,0.00,WeatherCatV1.01B143,2013-05-26 08:40:00,
2013-05-26 04:45:00,44.8,41.2,29.80,WNW,292,13.0,22.0,87,0.00,,,0.00,WeatherCatV1.01B143,2013-05-26 08:45:00,
2013-05-26 04:50:00,44.8,41.2,29.80,WNW,292,13.0,22.0,87,0.00,,,0.00,WeatherCatV1.01B143,2013-05-26 08:50:00,
2013-05-26 04:55:00,44.8,41.2,29.80,WNW,292,13.0,22.0,87,0.00,,,0.00,WeatherCatV1.01B143,2013-05-26 08:55:00,
2013-05-26 05:00:00,44.8,41.2,29.80,WNW,292,13.0,22.0,87,0.00,,,0.00,WeatherCatV1.01B143,2013-05-26 09:00:00,
2013-05-26 05:05:00,45.3,41.1,29.81,WNW,292,15.0,25.0,85,0.00,,,0.00,WeatherCatV1.01B143,2013-05-26 09:05:00,
2013-05-26 05:10:00,45.3,41.1,29.81,WNW,292,15.0,25.0,85,0.00,,,0.00,WeatherCatV1.01B143,2013-05-26 09:10:00,
2013-05-26 05:15:00,45.3,41.1,29.81,WNW,292,15.0,25.0,85,0.00,,,0.00,WeatherCatV1.01B143,2013-05-26 09:15:00,
2013-05-26 05:20:00,45.3,41.1,29.81,WNW,292,15.0,25.0,85,0.00,,,0.00,WeatherCatV1.01B143,2013-05-26 09:20:00,
2013-05-26 05:25:00,45.3,41.1,29.81,WNW,292,15.0,25.0,85,0.00,,,0.00,WeatherCatV1.01B143,2013-05-26 09:25:00,
2013-05-26 05:30:00,44.7,41.1,29.81,WNW,292,14.0,22.0,87,0.00,,,0.00,WeatherCatV1.01B143,2013-05-26 09:30:00,
2013-05-26 05:35:00,44.7,41.1,29.81,WNW,292,14.0,22.0,87,0.00,,,0.00,WeatherCatV1.01B143,2013-05-26 09:35:00,
2013-05-26 05:40:00,44.7,41.1,29.81,WNW,292,14.0,22.0,87,0.00,,,0.00,WeatherCatV1.01B143,2013-05-26 09:40:00,
2013-05-26 05:45:00,44.7,41.1,29.81,WNW,292,14.0,22.0,87,0.00,,,0.00,WeatherCatV1.01B143,2013-05-26 09:45:00,
2013-05-26 05:50:00,44.7,41.1,29.81,WNW,292,14.0,22.0,87,0.00,,,0.00,WeatherCatV1.01B143,2013-05-26 09:50:00,
2013-05-26 05:55:00,44.7,41.1,29.81,WNW,292,14.0,22.0,87,0.00,,,0.00,WeatherCatV1.01B143,2013-05-26 09:55:00,
2013-05-26 06:00:00,45.5,41.6,29.83,WNW,292,14.0,22.0,86,0.00,,,0.00,WeatherCatV1.01B143,2013-05-26 10:00:00,
2013-05-26 06:05:00,45.5,41.6,29.83,WNW,292,14.0,22.0,86,0.00,,,0.00,WeatherCatV1.01B143,2013-05-26 10:05:00,
2013-05-26 06:10:00,45.5,41.6,29.83,WNW,292,14.0,22.0,86,0.00,,,0.00,WeatherCatV1.01B143,2013-05-26 10:10:00,
2013-05-26 06:15:00,45.5,41.6,29.83,WNW,292,14.0,22.0,86,0.00,,,0.00,WeatherCatV1.01B143,2013-05-26 10:15:00,
2013-05-26 06:20:00,45.5,41.6,29.83,WNW,292,14.0,22.0,86,0.00,,,0.00,WeatherCatV1.01B143,2013-05-26 10:20:00,
2013-05-26 06:25:00,45.5,41.6,29.83,WNW,292,14.0,22.0,86,0.00,,,0.00,WeatherCatV1.01B143,2013-05-26 10:25:00,
2013-05-26 06:30:00,45.9,41.3,29.83,WNW,292,15.0,25.0,84,0.00,,,0.00,WeatherCatV1.01B143,2013-05-26 10:30:00,
2013-05-26 06:35:00,45.9,41.3,29.83,WNW,292,15.0,25.0,84,0.00,,,0.00,WeatherCatV1.01B143,2013-05-26 10:35:00,
2013-05-26 06:40:00,45.9,41.3,29.83,WNW,292,15.0,25.0,84,0.00,,,0.00,WeatherCatV1.01B143,2013-05-26 10:40:00,
2013-05-26 06:45:00,45.9,41.3,29.83,WNW,292,15.0,25.0,84,0.00,,,0.00,WeatherCatV1.01B143,2013-05-26 10:45:00,
2013-05-26 06:50:00,45.9,41.3,29.83,WNW,292,15.0,25.0,84,0.00,,,0.00,WeatherCatV1.01B143,2013-05-26 10:50:00,
2013-05-26 06:55:00,45.9,41.3,29.83,WNW,292,15.0,25.0,84,0.00,,,0.00,WeatherCatV1.01B143,2013-05-26 10:55:00,
2013-05-26 07:00:00,45.9,41.3,29.83,WNW,292,15.0,25.0,84,0.00,,,0.00,WeatherCatV1.01B143,2013-05-26 11:00:00,
2013-05-26 07:05:00,46.7,41.5,29.85,WNW,292,17.0,27.0,82,0.00,,,0.00,WeatherCatV1.01B143,2013-05-26 11:05:00,
2013-05-26 07:10:00,46.7,41.5,29.85,WNW,292,17.0,27.0,82,0.00,,,0.00,WeatherCatV1.01B143,2013-05-26 11:10:00,
2013-05-26 07:15:00,46.7,41.5,29.85,WNW,292,17.0,27.0,82,0.00,,,0.00,WeatherCatV1.01B143,2013-05-26 11:15:00,
2013-05-26 07:20:00,46.7,41.5,29.85,WNW,292,17.0,27.0,82,0.00,,,0.00,WeatherCatV1.01B143,2013-05-26 11:20:00,
2013-05-26 07:25:00,46.7,41.5,29.85,WNW,292,17.0,27.0,82,0.00,,,0.00,WeatherCatV1.01B143,2013-05-26 11:25:00,
2013-05-26 07:30:00,46.7,41.5,29.85,WNW,292,17.0,27.0,82,0.00,,,0.00,WeatherCatV1.01B143,2013-05-26 11:30:00,
2013-05-26 07:35:00,48.3,42.1,29.85,WNW,292,17.0,27.0,79,0.00,,,0.00,WeatherCatV1.01B143,2013-05-26 11:35:00,
2013-05-26 07:40:00,48.3,42.1,29.85,WNW,292,17.0,27.0,79,0.00,,,0.00,WeatherCatV1.01B143,2013-05-26 11:40:00,
2013-05-26 07:45:00,48.3,42.1,29.85,WNW,292,17.0,27.0,79,0.00,,,0.00,WeatherCatV1.01B143,2013-05-26 11:45:00,
2013-05-26 07:50:00,48.3,42.1,29.85,WNW,292,17.0,27.0,79,0.00,,,0.00,WeatherCatV1.01B143,2013-05-26 11:50:00,
2013-05-26 07:55:00,48.3,42.1,29.85,WNW,292,17.0,27.0,79,0.00,,,0.00,WeatherCatV1.01B143,2013-05-26 11:55:00,
2013-05-26 08:00:00,48.3,42.1,29.85,WNW,292,17.0,27.0,79,0.00,,,0.00,WeatherCatV1.01B143,2013-05-26 12:00:00,
2013-05-26 08:05:00,49.8,42.2,29.86,WNW,292,17.0,37.0,75,0.00,,,0.00,WeatherCatV1.01B143,2013-05-26 12:05:00,
2013-05-26 08:10:00,49.8,42.2,29.86,WNW,292,17.0,37.0,75,0.00,,,0.00,WeatherCatV1.01B143,2013-05-26 12:10:00,
2013-05-26 08:15:00,49.8,42.2,29.86,WNW,292,17.0,37.0,75,0.00,,,0.00,WeatherCatV1.01B143,2013-05-26 12:15:00,
2013-05-26 08:20:00,49.8,42.2,29.86,WNW,292,17.0,37.0,75,0.00,,,0.00,WeatherCatV1.01B143,2013-05-26 12:20:00,
2013-05-26 08:25:00,49.8,42.2,29.86,WNW,292,17.0,37.0,75,0.00,,,0.00,WeatherCatV1.01B143,2013-05-26 12:25:00,
2013-05-26 08:30:00,49.8,42.2,29.86,WNW,292,17.0,37.0,75,0.00,,,0.00,WeatherCatV1.01B143,2013-05-26 12:30:00,
2013-05-26 08:35:00,50.1,42.5,29.86,WNW,292,20.0,35.0,75,0.00,,,0.00,WeatherCatV1.01B143,2013-05-26 12:35:00,
2013-05-26 08:40:00,50.1,42.5,29.86,WNW,292,20.0,35.0,75,0.00,,,0.00,WeatherCatV1.01B143,2013-05-26 12:40:00,
2013-05-26 08:45:00,50.1,42.5,29.86,WNW,292,20.0,35.0,75,0.00,,,0.00,WeatherCatV1.01B143,2013-05-26 12:45:00,
2013-05-26 08:50:00,50.1,42.5,29.86,WNW,292,20.0,35.0,75,0.00,,,0.00,WeatherCatV1.01B143,2013-05-26 12:50:00,
2013-05-26 08:55:00,50.1,42.5,29.86,WNW,292,20.0,35.0,75,0.00,,,0.00,WeatherCatV1.01B143,2013-05-26 12:55:00,
2013-05-26 09:00:00,50.1,42.5,29.86,WNW,292,20.0,35.0,75,0.00,,,0.00,WeatherCatV1.01B143,2013-05-26 13:00:00,
2013-05-26 09:05:00,50.8,42.5,29.86,WNW,292,19.0,32.0,73,0.00,,,0.00,WeatherCatV1.01B143,2013-05-26 13:05:00,
2013-05-26 09:10:00,50.8,42.5,29.86,WNW,292,19.0,32.0,73,0.00,,,0.00,WeatherCatV1.01B143,2013-05-26 13:10:00,
2013-05-26 09:15:00,50.8,42.5,29.86,WNW,292,19.0,32.0,73,0.00,,,0.00,WeatherCatV1.01B143,2013-05-26 13:15:00,
2013-05-26 09:20:00,50.8,42.5,29.86,WNW,292,19.0,32.0,73,0.00,,,0.00,WeatherCatV1.01B143,2013-05-26 13:20:00,
2013-05-26 09:25:00,50.8,42.5,29.86,WNW,292,19.0,32.0,73,0.00,,,0.00,WeatherCatV1.01B143,2013-05-26 13:25:00,
2013-05-26 09:30:00,50.8,42.5,29.86,WNW,292,19.0,32.0,73,0.00,,,0.00,WeatherCatV1.01B143,2013-05-26 13:30:00,
2013-05-26 09:35:00,52.3,41.7,29.86,WNW,292,21.0,37.0,67,0.00,,,0.00,WeatherCatV1.01B143,2013-05-26 13:35:00,
2013-05-26 09:40:00,52.3,41.7,29.86,WNW,292,21.0,37.0,67,0.00,,,0.00,WeatherCatV1.01B143,2013-05-26 13:40:00,
2013-05-26 09:45:00,52.3,41.7,29.86,WNW,292,21.0,37.0,67,0.00,,,0.00,WeatherCatV1.01B143,2013-05-26 13:45:00,
2013-05-26 09:50:00,52.3,41.7,29.86,WNW,292,21.0,37.0,67,0.00,,,0.00,WeatherCatV1.01B143,2013-05-26 13:50:00,
2013-05-26 09:55:00,52.3,41.7,29.86,WNW,292,21.0,37.0,67,0.00,,,0.00,WeatherCatV1.01B143,2013-05-26 13:55:00,
2013-05-26 10:00:00,52.3,41.7,29.86,WNW,292,21.0,37.0,67,0.00,,,0.00,WeatherCatV1.01B143,2013-05-26 14:00:00,
2013-05-26 10:05:00,53.3,41.0,29.87,WNW,292,22.0,41.0,63,0.00,,,0.00,WeatherCatV1.01B143,2013-05-26 14:05:00,
2013-05-26 10:10:00,53.3,41.0,29.87,WNW,292,22.0,41.0,63,0.00,,,0.00,WeatherCatV1.01B143,2013-05-26 14:10:00,
2013-05-26 10:15:00,53.3,41.0,29.87,WNW,292,22.0,41.0,63,0.00,,,0.00,WeatherCatV1.01B143,2013-05-26 14:15:00,
2013-05-26 10:20:00,53.3,41.0,29.87,WNW,292,22.0,41.0,63,0.00,,,0.00,WeatherCatV1.01B143,2013-05-26 14:20:00,
2013-05-26 10:25:00,53.3,41.0,29.87,WNW,292,22.0,41.0,63,0.00,,,0.00,WeatherCatV1.01B143,2013-05-26 14:25:00,
2013-05-26 10:30:00,53.3,41.0,29.87,WNW,292,22.0,41.0,63,0.00,,,0.00,WeatherCatV1.01B143,2013-05-26 14:30:00,
2013-05-26 10:35:00,53.8,41.9,29.88,WNW,292,21.0,38.0,64,0.00,,,0.00,WeatherCatV1.01B143,2013-05-26 14:35:00,
2013-05-26 10:40:00,53.8,41.9,29.88,WNW,292,21.0,38.0,64,0.00,,,0.00,WeatherCatV1.01B143,2013-05-26 14:40:00,
2013-05-26 10:45:00,53.8,41.9,29.88,WNW,292,21.0,38.0,64,0.00,,,0.00,WeatherCatV1.01B143,2013-05-26 14:45:00,
2013-05-26 10:50:00,53.8,41.9,29.88,WNW,292,21.0,38.0,64,0.00,,,0.00,WeatherCatV1.01B143,2013-05-26 14:50:00,
2013-05-26 10:55:00,53.8,41.9,29.88,WNW,292,21.0,38.0,64,0.00,,,0.00,WeatherCatV1.01B143,2013-05-26 14:55:00,
2013-05-26 11:00:00,53.8,41.9,29.88,WNW,292,21.0,38.0,64,0.00,,,0.00,WeatherCatV1.01B143,2013-05-26 15:00:00,
2013-05-26 11:05:00,54.8,42.4,29.89,WNW,292,22.0,36.0,63,0.00,,,0.00,WeatherCatV1.01B143,2013-05-26 15:05:00,
2013-05-26 11:10:00,54.8,42.4,29.89,WNW,292,22.0,36.0,63,0.00,,,0.00,WeatherCatV1.01B143,2013-05-26 15:10:00,
2013-05-26 11:15:00,54.8,42.4,29.89,WNW,292,22.0,36.0,63,0.00,,,0.00,WeatherCatV1.01B143,2013-05-26 15:15:00,
2013-05-26 11:20:00,54.8,42.4,29.89,WNW,292,22.0,36.0,63,0.00,,,0.00,WeatherCatV1.01B143,2013-05-26 15:20:00,
2013-05-26 11:25:00,54.8,42.4,29.89,WNW,292,22.0,36.0,63,0.00,,,0.00,WeatherCatV1.01B143,2013-05-26 15:25:00,
2013-05-26 11:30:00,54.8,42.4,29.89,WNW,292,22.0,36.0,63,0.00,,,0.00,WeatherCatV1.01B143,2013-05-26 15:30:00,
2013-05-26 11:35:00,54.6,41.8,29.89,WNW,292,18.0,32.0,62,0.00,,,0.00,WeatherCatV1.01B143,2013-05-26 15:35:00,
2013-05-26 11:40:00,54.6,41.8,29.89,WNW,292,18.0,32.0,62,0.00,,,0.00,WeatherCatV1.01B143,2013-05-26 15:40:00,
2013-05-26 11:45:00,54.6,41.8,29.89,WNW,292,18.0,32.0,62,0.00,,,0.00,WeatherCatV1.01B143,2013-05-26 15:45:00,
2013-05-26 11:50:00,54.6,41.8,29.89,WNW,292,18.0,32.0,62,0.00,,,0.00,WeatherCatV1.01B143,2013-05-26 15:50:00,
2013-05-26 11:55:00,54.6,41.8,29.89,WNW,292,18.0,32.0,62,0.00,,,0.00,WeatherCatV1.01B143,2013-05-26 15:55:00,
2013-05-26 12:00:00,54.6,41.8,29.89,WNW,292,18.0,32.0,62,0.00,,,0.00,WeatherCatV1.01B143,2013-05-26 16:00:00,
2013-05-26 12:05:00,54.8,42.4,29.90,WNW,292,19.0,31.0,63,0.00,,,0.00,WeatherCatV1.01B143,2013-05-26 16:05:00,
2013-05-26 12:10:00,54.8,42.4,29.90,WNW,292,19.0,31.0,63,0.00,,,0.00,WeatherCatV1.01B143,2013-05-26 16:10:00,
2013-05-26 12:15:00,54.8,42.4,29.90,WNW,292,19.0,31.0,63,0.00,,,0.00,WeatherCatV1.01B143,2013-05-26 16:15:00,
2013-05-26 12:20:00,54.8,42.4,29.90,WNW,292,19.0,31.0,63,0.00,,,0.00,WeatherCatV1.01B143,2013-05-26 16:20:00,
2013-05-26 12:25:00,54.8,42.4,29.90,WNW,292,19.0,31.0,63,0.00,,,0.00,WeatherCatV1.01B143,2013-05-26 16:25:00,
2013-05-26 12:30:00,54.8,42.4,29.90,WNW,292,19.0,31.0,63,0.00,,,0.00,WeatherCatV1.01B143,2013-05-26 16:30:00,
2013-05-26 12:35:00,55.7,42.9,29.90,NW,315,17.0,32.0,62,0.00,,,0.00,WeatherCatV1.01B143,2013-05-26 16:35:00,
2013-05-26 12:40:00,55.7,42.9,29.90,NW,315,17.0,32.0,62,0.00,,,0.00,WeatherCatV1.01B143,2013-05-26 16:40:00,
2013-05-26 12:45:00,55.7,42.9,29.90,NW,315,17.0,32.0,62,0.00,,,0.00,WeatherCatV1.01B143,2013-05-26 16:45:00,
2013-05-26 12:50:00,55.7,42.9,29.90,NW,315,17.0,32.0,62,0.00,,,0.00,WeatherCatV1.01B143,2013-05-26 16:50:00,
2013-05-26 12:55:00,55.7,42.9,29.90,NW,315,17.0,32.0,62,0.00,,,0.00,WeatherCatV1.01B143,2013-05-26 16:55:00,
2013-05-26 13:00:00,55.7,42.9,29.90,NW,315,17.0,32.0,62,0.00,,,0.00,WeatherCatV1.01B143,2013-05-26 17:00:00,
2013-05-26 13:05:00,56.3,42.6,29.90,WNW,292,19.0,36.0,60,0.00,,,0.00,WeatherCatV1.01B143,2013-05-26 17:05:00,
2013-05-26 13:10:00,56.3,42.6,29.90,WNW,292,19.0,36.0,60,0.00,,,0.00,WeatherCatV1.01B143,2013-05-26 17:10:00,
2013-05-26 13:15:00,56.3,42.6,29.90,WNW,292,19.0,36.0,60,0.00,,,0.00,WeatherCatV1.01B143,2013-05-26 17:15:00,
2013-05-26 13:20:00,56.3,42.6,29.90,WNW,292,19.0,36.0,60,0.00,,,0.00,WeatherCatV1.01B143,2013-05-26 17:20:00,
2013-05-26 13:25:00,56.3,42.6,29.90,WNW,292,19.0,36.0,60,0.00,,,0.00,WeatherCatV1.01B143,2013-05-26 17:25:00,
2013-05-26 13:30:00,56.3,42.6,29.90,WNW,292,19.0,36.0,60,0.00,,,0.00,WeatherCatV1.01B143,2013-05-26 17:30:00,
2013-05-26 13:35:00,57.0,43.2,29.91,WNW,292,21.0,35.0,60,0.00,,,0.00,WeatherCatV1.01B143,2013-05-26 17:35:00,
2013-05-26 13:40:00,57.0,43.2,29.91,WNW,292,21.0,35.0,60,0.00,,,0.00,WeatherCatV1.01B143,2013-05-26 17:40:00,
2013-05-26 13:45:00,57.0,43.2,29.91,WNW,292,21.0,35.0,60,0.00,,,0.00,WeatherCatV1.01B143,2013-05-26 17:45:00,
2013-05-26 13:50:00,57.0,43.2,29.91,WNW,292,21.0,35.0,60,0.00,,,0.00,WeatherCatV1.01B143,2013-05-26 17:50:00,
2013-05-26 13:55:00,57.0,43.2,29.91,WNW,292,21.0,35.0,60,0.00,,,0.00,WeatherCatV1.01B143,2013-05-26 17:55:00,
2013-05-26 14:00:00,57.0,43.2,29.91,WNW,292,21.0,35.0,60,0.00,,,0.00,WeatherCatV1.01B143,2013-05-26 18:00:00,
2013-05-26 14:05:00,58.1,42.9,29.91,NW,315,17.0,31.0,57,0.00,,,0.00,WeatherCatV1.01B143,2013-05-26 18:05:00,
2013-05-26 14:10:00,58.1,42.9,29.91,NW,315,17.0,31.0,57,0.00,,,0.00,WeatherCatV1.01B143,2013-05-26 18:10:00,
2013-05-26 14:15:00,58.1,42.9,29.91,NW,315,17.0,31.0,57,0.00,,,0.00,WeatherCatV1.01B143,2013-05-26 18:15:00,
2013-05-26 14:20:00,58.1,42.9,29.91,NW,315,17.0,31.0,57,0.00,,,0.00,WeatherCatV1.01B143,2013-05-26 18:20:00,
2013-05-26 14:25:00,58.1,42.9,29.91,NW,315,17.0,31.0,57,0.00,,,0.00,WeatherCatV1.01B143,2013-05-26 18:25:00,
2013-05-26 14:30:00,58.1,42.9,29.91,NW,315,17.0,31.0,57,0.00,,,0.00,WeatherCatV1.01B143,2013-05-26 18:30:00,
2013-05-26 14:35:00,57.8,42.7,29.92,NW,315,17.0,32.0,57,0.00,,,0.00,WeatherCatV1.01B143,2013-05-26 18:35:00,
2013-05-26 14:40:00,57.8,42.7,29.92,NW,315,17.0,32.0,57,0.00,,,0.00,WeatherCatV1.01B143,2013-05-26 18:40:00,
2013-05-26 14:45:00,57.8,42.7,29.92,NW,315,17.0,32.0,57,0.00,,,0.00,WeatherCatV1.01B143,2013-05-26 18:45:00,
2013-05-26 14:50:00,57.8,42.7,29.92,NW,315,17.0,32.0,57,0.00,,,0.00,WeatherCatV1.01B143,2013-05-26 18:50:00,
2013-05-26 14:55:00,57.8,42.7,29.92,NW,315,17.0,32.0,57,0.00,,,0.00,WeatherCatV1.01B143,2013-05-26 18:55:00,
2013-05-26 15:00:00,57.8,42.7,29.92,NW,315,17.0,32.0,57,0.00,,,0.00,WeatherCatV1.01B143,2013-05-26 19:00:00,
2013-05-26 15:05:00,58.8,44.1,29.93,WNW,292,21.0,38.0,58,0.00,,,0.00,WeatherCatV1.01B143,2013-05-26 19:05:00,
2013-05-26 15:10:00,58.8,44.1,29.93,WNW,292,21.0,38.0,58,0.00,,,0.00,WeatherCatV1.01B143,2013-05-26 19:10:00,
2013-05-26 15:15:00,58.8,44.1,29.93,WNW,292,21.0,38.0,58,0.00,,,0.00,WeatherCatV1.01B143,2013-05-26 19:15:00,
2013-05-26 15:20:00,58.8,44.1,29.93,WNW,292,21.0,38.0,58,0.00,,,0.00,WeatherCatV1.01B143,2013-05-26 19:20:00,
2013-05-26 15:25:00,58.8,44.1,29.93,WNW,292,21.0,38.0,58,0.00,,,0.00,WeatherCatV1.01B143,2013-05-26 19:25:00,
2013-05-26 15:30:00,58.8,44.1,29.93,WNW,292,21.0,38.0,58,0.00,,,0.00,WeatherCatV1.01B143,2013-05-26 19:30:00,
2013-05-26 15:35:00,57.4,45.7,29.94,NW,315,17.0,32.0,65,0.00,,,0.00,WeatherCatV1.01B143,2013-05-26 19:35:00,
2013-05-26 15:40:00,57.4,45.7,29.94,NW,315,17.0,32.0,65,0.00,,,0.00,WeatherCatV1.01B143,2013-05-26 19:40:00,
2013-05-26 15:45:00,57.4,45.7,29.94,NW,315,17.0,32.0,65,0.00,,,0.00,WeatherCatV1.01B143,2013-05-26 19:45:00,
2013-05-26 15:50:00,57.4,45.7,29.94,NW,315,17.0,32.0,65,0.00,,,0.00,WeatherCatV1.01B143,2013-05-26 19:50:00,
2013-05-26 15:55:00,57.4,45.7,29.94,NW,315,17.0,32.0,65,0.00,,,0.00,WeatherCatV1.01B143,2013-05-26 19:55:00,
2013-05-26 16:00:00,57.4,45.7,29.94,NW,315,17.0,32.0,65,0.00,,,0.00,WeatherCatV1.01B143,2013-05-26 20:00:00,
2013-05-26 16:05:00,59.0,44.2,29.94,WNW,292,17.0,29.0,58,0.00,,,0.00,WeatherCatV1.01B143,2013-05-26 20:05:00,
2013-05-26 16:10:00,59.0,44.2,29.94,WNW,292,17.0,29.0,58,0.00,,,0.00,WeatherCatV1.01B143,2013-05-26 20:10:00,
2013-05-26 16:15:00,59.0,44.2,29.94,WNW,292,17.0,29.0,58,0.00,,,0.00,WeatherCatV1.01B143,2013-05-26 20:15:00,
2013-05-26 16:20:00,59.0,44.2,29.94,WNW,292,17.0,29.0,58,0.00,,,0.00,WeatherCatV1.01B143,2013-05-26 20:20:00,
2013-05-26 16:25:00,59.0,44.2,29.94,WNW,292,17.0,29.0,58,0.00,,,0.00,WeatherCatV1.01B143,2013-05-26 20:25:00,
2013-05-26 16:30:00,59.0,44.2,29.94,WNW,292,17.0,29.0,58,0.00,,,0.00,WeatherCatV1.01B143,2013-05-26 20:30:00,
2013-05-26 16:35:00,55.9,45.9,29.96,NW,315,17.0,36.0,69,0.00,,,0.00,WeatherCatV1.01B143,2013-05-26 20:35:00,
2013-05-26 16:40:00,55.9,45.9,29.96,NW,315,17.0,36.0,69,0.00,,,0.00,WeatherCatV1.01B143,2013-05-26 20:40:00,
2013-05-26 16:45:00,55.9,45.9,29.96,NW,315,17.0,36.0,69,0.00,,,0.00,WeatherCatV1.01B143,2013-05-26 20:45:00,
2013-05-26 16:50:00,55.9,45.9,29.96,NW,315,17.0,36.0,69,0.00,,,0.00,WeatherCatV1.01B143,2013-05-26 20:50:00,
2013-05-26 16:55:00,55.9,45.9,29.96,NW,315,17.0,36.0,69,0.00,,,0.00,WeatherCatV1.01B143,2013-05-26 20:55:00,
2013-05-26 17:00:00,55.9,45.9,29.96,NW,315,17.0,36.0,69,0.00,,,0.00,WeatherCatV1.01B143,2013-05-26 21:00:00,
2013-05-26 17:05:00,59.3,44.1,29.97,NW,315,14.0,27.0,57,0.00,,,0.00,WeatherCatV1.01B143,2013-05-26 21:05:00,
2013-05-26 17:10:00,59.3,44.1,29.97,NW,315,14.0,27.0,57,0.00,,,0.00,WeatherCatV1.01B143,2013-05-26 21:10:00,
2013-05-26 17:15:00,59.3,44.1,29.97,NW,315,14.0,27.0,57,0.00,,,0.00,WeatherCatV1.01B143,2013-05-26 21:15:00,
2013-05-26 17:20:00,59.3,44.1,29.97,NW,315,14.0,27.0,57,0.00,,,0.00,WeatherCatV1.01B143,2013-05-26 21:20:00,
2013-05-26 17:25:00,59.3,44.1,29.97,NW,315,14.0,27.0,57,0.00,,,0.00,WeatherCatV1.01B143,2013-05-26 21:25:00,
2013-05-26 17:30:00,59.3,44.1,29.97,NW,315,14.0,27.0,57,0.00,,,0.00,WeatherCatV1.01B143,2013-05-26 21:30:00,
2013-05-26 17:35:00,57.5,44.2,29.99,NW,315,18.0,32.0,61,0.00,,,0.00,WeatherCatV1.01B143,2013-05-26 21:35:00,
2013-05-26 17:40:00,57.5,44.2,29.99,NW,315,18.0,32.0,61,0.00,,,0.00,WeatherCatV1.01B143,2013-05-26 21:40:00,
2013-05-26 17:45:00,57.5,44.2,29.99,NW,315,18.0,32.0,61,0.00,,,0.00,WeatherCatV1.01B143,2013-05-26 21:45:00,
2013-05-26 17:50:00,57.5,44.2,29.99,NW,315,18.0,32.0,61,0.00,,,0.00,WeatherCatV1.01B143,2013-05-26 21:50:00,
2013-05-26 17:55:00,57.5,44.2,29.99,NW,315,18.0,32.0,61,0.00,,,0.00,WeatherCatV1.01B143,2013-05-26 21:55:00,
2013-05-26 18:00:00,57.5,44.2,29.99,NW,315,18.0,32.0,61,0.00,,,0.00,WeatherCatV1.01B143,2013-05-26 22:00:00,
2013-05-26 18:05:00,57.8,45.7,30.00,WNW,292,13.0,31.0,64,0.00,,,0.00,WeatherCatV1.01B143,2013-05-26 22:05:00,
2013-05-26 18:10:00,57.8,45.7,30.00,WNW,292,13.0,31.0,64,0.00,,,0.00,WeatherCatV1.01B143,2013-05-26 22:10:00,
2013-05-26 18:15:00,57.8,45.7,30.00,WNW,292,13.0,31.0,64,0.00,,,0.00,WeatherCatV1.01B143,2013-05-26 22:15:00,
2013-05-26 18:20:00,57.8,45.7,30.00,WNW,292,13.0,31.0,64,0.00,,,0.00,WeatherCatV1.01B143,2013-05-26 22:20:00,
2013-05-26 18:25:00,57.8,45.7,30.00,WNW,292,13.0,31.0,64,0.00,,,0.00,WeatherCatV1.01B143,2013-05-26 22:25:00,
2013-05-26 18:30:00,57.8,45.7,30.00,WNW,292,13.0,31.0,64,0.00,,,0.00,WeatherCatV1.01B143,2013-05-26 22:30:00,
2013-05-26 18:35:00,57.4,44.9,30.02,NW,315,12.0,29.0,63,0.00,,,0.00,WeatherCatV1.01B143,2013-05-26 22:35:00,
2013-05-26 18:40:00,57.4,44.9,30.02,NW,315,12.0,29.0,63,0.00,,,0.00,WeatherCatV1.01B143,2013-05-26 22:40:00,
2013-05-26 18:45:00,57.4,44.9,30.02,NW,315,12.0,29.0,63,0.00,,,0.00,WeatherCatV1.01B143,2013-05-26 22:45:00,
2013-05-26 18:50:00,57.4,44.9,30.02,NW,315,12.0,29.0,63,0.00,,,0.00,WeatherCatV1.01B143,2013-05-26 22:50:00,
2013-05-26 18:55:00,57.4,44.9,30.02,NW,315,12.0,29.0,63,0.00,,,0.00,WeatherCatV1.01B143,2013-05-26 22:55:00,
2013-05-26 19:00:00,57.4,44.9,30.02,NW,315,12.0,29.0,63,0.00,,,0.00,WeatherCatV1.01B143,2013-05-26 23:00:00,
2013-05-26 19:05:00,56.6,43.7,30.03,NW,315,15.0,26.0,62,0.00,,,0.00,WeatherCatV1.01B143,2013-05-26 23:05:00,
2013-05-26 19:10:00,56.6,43.7,30.03,NW,315,15.0,26.0,62,0.00,,,0.00,WeatherCatV1.01B143,2013-05-26 23:10:00,
2013-05-26 19:15:00,56.6,43.7,30.03,NW,315,15.0,26.0,62,0.00,,,0.00,WeatherCatV1.01B143,2013-05-26 23:15:00,
2013-05-26 19:20:00,56.6,43.7,30.03,NW,315,15.0,26.0,62,0.00,,,0.00,WeatherCatV1.01B143,2013-05-26 23:20:00,
2013-05-26 19:25:00,56.6,43.7,30.03,NW,315,15.0,26.0,62,0.00,,,0.00,WeatherCatV1.01B143,2013-05-26 23:25:00,
2013-05-26 19:30:00,56.6,43.7,30.03,NW,315,15.0,26.0,62,0.00,,,0.00,WeatherCatV1.01B143,2013-05-26 23:30:00,
2013-05-26 19:35:00,56.5,43.6,30.05,NW,315,15.0,29.0,62,0.00,,,0.00,WeatherCatV1.01B143,2013-05-26 23:35:00,
2013-05-26 19:40:00,56.5,43.6,30.05,NW,315,15.0,29.0,62,0.00,,,0.00,WeatherCatV1.01B143,2013-05-26 23:40:00,
2013-05-26 19:45:00,56.5,43.6,30.05,NW,315,15.0,29.0,62,0.00,,,0.00,WeatherCatV1.01B143,2013-05-26 23:45:00,
2013-05-26 19:50:00,56.5,43.6,30.05,NW,315,15.0,29.0,62,0.00,,,0.00,WeatherCatV1.01B143,2013-05-26 23:50:00,
2013-05-26 19:55:00,56.5,43.6,30.05,NW,315,15.0,29.0,62,0.00,,,0.00,WeatherCatV1.01B143,2013-05-26 23:55:00,
2013-05-26 20:00:00,56.5,43.6,30.05,NW,315,15.0,29.0,62,0.00,,,0.00,WeatherCatV1.01B143,2013-05-27 00:00:00,
2013-05-26 20:05:00,54.6,43.1,30.07,NW,315,14.0,23.0,65,0.00,,,0.00,WeatherCatV1.01B143,2013-05-27 00:05:00,
2013-05-26 20:10:00,54.6,43.1,30.07,NW,315,14.0,23.0,65,0.00,,,0.00,WeatherCatV1.01B143,2013-05-27 00:10:00,
2013-05-26 20:15:00,54.6,43.1,30.07,NW,315,14.0,23.0,65,0.00,,,0.00,WeatherCatV1.01B143,2013-05-27 00:15:00,
2013-05-26 20:20:00,54.6,43.1,30.07,NW,315,14.0,23.0,65,0.00,,,0.00,WeatherCatV1.01B143,2013-05-27 00:20:00,
2013-05-26 20:25:00,54.6,43.1,30.07,NW,315,14.0,23.0,65,0.00,,,0.00,WeatherCatV1.01B143,2013-05-27 00:25:00,
2013-05-26 20:30:00,54.6,43.1,30.07,NW,315,14.0,23.0,65,0.00,,,0.00,WeatherCatV1.01B143,2013-05-27 00:30:00,
2013-05-26 20:35:00,53.4,43.5,30.08,WNW,292,8.0,18.0,69,0.00,,,0.00,WeatherCatV1.01B143,2013-05-27 00:35:00,
2013-05-26 20:40:00,53.4,43.5,30.08,WNW,292,8.0,18.0,69,0.00,,,0.00,WeatherCatV1.01B143,2013-05-27 00:40:00,
2013-05-26 20:45:00,53.4,43.5,30.08,WNW,292,8.0,18.0,69,0.00,,,0.00,WeatherCatV1.01B143,2013-05-27 00:45:00,
2013-05-26 20:50:00,53.4,43.5,30.08,WNW,292,8.0,18.0,69,0.00,,,0.00,WeatherCatV1.01B143,2013-05-27 00:50:00,
2013-05-26 20:55:00,53.4,43.5,30.08,WNW,292,8.0,18.0,69,0.00,,,0.00,WeatherCatV1.01B143,2013-05-27 00:55:00,
2013-05-26 21:00:00,53.4,43.5,30.08,WNW,292,8.0,18.0,69,0.00,,,0.00,WeatherCatV1.01B143,2013-05-27 01:00:00,
2013-05-26 21:05:00,52.7,43.6,30.09,WNW,292,10.0,17.0,71,0.00,,,0.00,WeatherCatV1.01B143,2013-05-27 01:05:00,
2013-05-26 21:10:00,52.7,43.6,30.09,WNW,292,10.0,17.0,71,0.00,,,0.00,WeatherCatV1.01B143,2013-05-27 01:10:00,
2013-05-26 21:15:00,52.7,43.6,30.09,WNW,292,10.0,17.0,71,0.00,,,0.00,WeatherCatV1.01B143,2013-05-27 01:15:00,
2013-05-26 21:20:00,52.7,43.6,30.09,WNW,292,10.0,17.0,71,0.00,,,0.00,WeatherCatV1.01B143,2013-05-27 01:20:00,
2013-05-26 21:25:00,52.7,43.6,30.09,WNW,292,10.0,17.0,71,0.00,,,0.00,WeatherCatV1.01B143,2013-05-27 01:25:00,
2013-05-26 21:30:00,52.7,43.6,30.09,WNW,292,10.0,17.0,71,0.00,,,0.00,WeatherCatV1.01B143,2013-05-27 01:30:00,
2013-05-26 21:35:00,52.0,43.2,30.10,WNW,292,9.0,14.0,72,0.00,,,0.00,WeatherCatV1.01B143,2013-05-27 01:35:00,
2013-05-26 21:40:00,52.0,43.2,30.10,WNW,292,9.0,14.0,72,0.00,,,0.00,WeatherCatV1.01B143,2013-05-27 01:40:00,
2013-05-26 21:45:00,52.0,43.2,30.10,WNW,292,9.0,14.0,72,0.00,,,0.00,WeatherCatV1.01B143,2013-05-27 01:45:00,
2013-05-26 21:50:00,52.0,43.2,30.10,WNW,292,9.0,14.0,72,0.00,,,0.00,WeatherCatV1.01B143,2013-05-27 01:50:00,
2013-05-26 21:55:00,52.0,43.2,30.10,WNW,292,9.0,14.0,72,0.00,,,0.00,WeatherCatV1.01B143,2013-05-27 01:55:00,
2013-05-26 22:00:00,52.0,43.2,30.10,WNW,292,9.0,14.0,72,0.00,,,0.00,WeatherCatV1.01B143,2013-05-27 02:00:00,
2013-05-26 22:05:00,50.9,43.3,30.12,WNW,292,7.0,11.0,75,0.00,,,0.00,WeatherCatV1.01B143,2013-05-27 02:05:00,
2013-05-26 22:10:00,50.9,43.3,30.12,WNW,292,7.0,11.0,75,0.00,,,0.00,WeatherCatV1.01B143,2013-05-27 02:10:00,
2013-05-26 22:15:00,50.9,43.3,30.12,WNW,292,7.0,11.0,75,0.00,,,0.00,WeatherCatV1.01B143,2013-05-27 02:15:00,
2013-05-26 22:20:00,50.9,43.3,30.12,WNW,292,7.0,11.0,75,0.00,,,0.00,WeatherCatV1.01B143,2013-05-27 02:20:00,
2013-05-26 22:25:00,50.9,43.3,30.12,WNW,292,7.0,11.0,75,0.00,,,0.00,WeatherCatV1.01B143,2013-05-27 02:25:00,
2013-05-26 22:30:00,50.6,43.3,30.12,WNW,292,6.0,9.0,76,0.00,,,0.00,WeatherCatV1.01B143,2013-05-27 02:30:00,
2013-05-26 22:35:00,50.6,43.3,30.12,WNW,292,6.0,9.0,76,0.00,,,0.00,WeatherCatV1.01B143,2013-05-27 02:35:00,
2013-05-26 22:40:00,50.6,43.3,30.12,WNW,292,6.0,9.0,76,0.00,,,0.00,WeatherCatV1.01B143,2013-05-27 02:40:00,
2013-05-26 22:45:00,50.6,43.3,30.12,WNW,292,6.0,9.0,76,0.00,,,0.00,WeatherCatV1.01B143,2013-05-27 02:45:00,
2013-05-26 22:50:00,50.6,43.3,30.12,WNW,292,6.0,9.0,76,0.00,,,0.00,WeatherCatV1.01B143,2013-05-27 02:50:00,
2013-05-26 22:55:00,50.6,43.3,30.12,WNW,292,6.0,9.0,76,0.00,,,0.00,WeatherCatV1.01B143,2013-05-27 02:55:00,
2013-05-26 23:00:00,50.5,43.2,30.13,WNW,292,4.0,9.0,76,0.00,,,0.00,WeatherCatV1.01B143,2013-05-27 03:00:00,
2013-05-26 23:05:00,50.5,43.2,30.13,WNW,292,4.0,9.0,76,0.00,,,0.00,WeatherCatV1.01B143,2013-05-27 03:05:00,
2013-05-26 23:10:00,50.5,43.2,30.13,WNW,292,4.0,9.0,76,0.00,,,0.00,WeatherCatV1.01B143,2013-05-27 03:10:00,
2013-05-26 23:15:00,50.5,43.2,30.13,WNW,292,4.0,9.0,76,0.00,,,0.00,WeatherCatV1.01B143,2013-05-27 03:15:00,
2013-05-26 23:20:00,50.5,43.2,30.13,WNW,292,4.0,9.0,76,0.00,,,0.00,WeatherCatV1.01B143,2013-05-27 03:20:00,
2013-05-26 23:25:00,50.5,43.2,30.13,WNW,292,4.0,9.0,76,0.00,,,0.00,WeatherCatV1.01B143,2013-05-27 03:25:00,
2013-05-26 23:30:00,50.5,43.2,30.13,WNW,292,4.0,9.0,76,0.00,,,0.00,WeatherCatV1.01B143,2013-05-27 03:30:00,
2013-05-26 23:35:00,49.6,43.7,30.14,WNW,292,3.0,8.0,80,0.00,,,0.00,WeatherCatV1.01B143,2013-05-27 03:35:00,
2013-05-26 23:40:00,49.6,43.7,30.14,WNW,292,3.0,8.0,80,0.00,,,0.00,WeatherCatV1.01B143,2013-05-27 03:40:00,
2013-05-26 23:45:00,49.6,43.7,30.14,WNW,292,3.0,8.0,80,0.00,,,0.00,WeatherCatV1.01B143,2013-05-27 03:45:00,
2013-05-26 23:50:00,49.6,43.7,30.14,WNW,292,3.0,8.0,80,0.00,,,0.00,WeatherCatV1.01B143,2013-05-27 03:50:00,
2013-05-26 23:55:00,49.6,43.7,30.14,WNW,292,3.0,8.0,80,0.00,,,0.00,WeatherCatV1.01B143,2013-05-27 03:55:00,